createdAt,value
2019-01-25T05:00:24.027Z,0
2019-01-25T05:03:52.135Z,0
2019-01-25T05:07:20.210Z,0
2019-01-25T05:10:48.090Z,0
2019-01-25T05:14:15.941Z,0
2019-01-25T05:17:43.814Z,0
2019-01-25T05:21:11.687Z,0
2019-01-25T05:24:40.532Z,0
2019-01-25T05:28:09.719Z,0
2019-01-25T05:31:37.255Z,0
2019-01-25T05:35:05.294Z,0
2019-01-25T05:38:33.964Z,0
2019-01-25T05:42:01.833Z,0
2019-01-25T05:45:29.694Z,0
2019-01-25T05:48:58.860Z,0
2019-01-25T05:52:26.733Z,0
2019-01-25T05:55:54.600Z,0
2019-01-25T05:59:23.443Z,0
2019-01-25T06:02:51.353Z,0
2019-01-25T06:06:20.216Z,0
2019-01-25T06:09:49.065Z,0
2019-01-25T06:13:17.922Z,0
2019-01-25T06:16:45.800Z,0
2019-01-25T06:20:13.657Z,0
2019-01-25T06:23:41.533Z,0
2019-01-25T06:27:09.401Z,0
2019-01-25T06:30:38.262Z,0
2019-01-25T06:34:06.115Z,0
2019-01-25T06:37:33.986Z,0
2019-01-25T06:41:01.972Z,0
2019-01-25T06:44:29.824Z,0
2019-01-25T06:47:57.696Z,0
2019-01-25T06:51:25.561Z,0
2019-01-25T06:54:53.415Z,0
2019-01-25T06:58:21.291Z,0
2019-01-25T07:01:49.163Z,0
2019-01-25T07:05:17.018Z,0
2019-01-25T07:08:44.890Z,0
2019-01-25T07:12:12.745Z,0
2019-01-25T07:15:41.609Z,0
2019-01-25T07:19:09.471Z,0
2019-01-25T07:22:37.357Z,5.625
2019-01-25T07:26:05.211Z,5.625
2019-01-25T07:29:33.086Z,5.625
2019-01-25T07:33:01.947Z,5.625
2019-01-25T07:36:30.804Z,5.625
2019-01-25T07:39:58.679Z,11.25
2019-01-25T07:43:26.561Z,11.25
2019-01-25T07:46:54.403Z,11.25
2019-01-25T07:50:22.273Z,11.25
2019-01-25T07:53:50.149Z,16.875
2019-01-25T07:57:18.030Z,16.875
2019-01-25T08:00:45.872Z,16.875
2019-01-25T08:04:13.767Z,16.875
2019-01-25T08:07:42.572Z,22.5
2019-01-25T08:11:11.496Z,22.5
2019-01-25T08:14:39.315Z,22.5
2019-01-25T08:18:07.179Z,22.5
2019-01-25T08:21:36.203Z,28.125
2019-01-25T08:25:03.902Z,28.125
2019-01-25T08:28:31.776Z,28.125
2019-01-25T08:31:59.665Z,22.5
2019-01-25T08:35:27.509Z,28.125
2019-01-25T08:38:55.379Z,39.375
2019-01-25T08:42:23.232Z,39.375
2019-01-25T08:45:52.094Z,39.375
2019-01-25T08:49:19.966Z,39.375
2019-01-25T08:52:47.841Z,39.375
2019-01-25T08:56:15.725Z,39.375
2019-01-25T08:59:45.734Z,45
2019-01-25T09:03:13.390Z,50.625
2019-01-25T09:06:41.259Z,50.625
2019-01-25T09:10:09.142Z,56.25
2019-01-25T09:13:36.992Z,56.25
2019-01-25T09:17:04.861Z,56.25
2019-01-25T09:20:32.729Z,61.875
2019-01-25T09:24:00.576Z,56.25
2019-01-25T09:27:28.466Z,61.875
2019-01-25T09:30:56.333Z,61.875
2019-01-25T09:34:24.214Z,73.125
2019-01-25T09:37:52.073Z,73.125
2019-01-25T09:41:20.933Z,67.5
2019-01-25T09:44:48.800Z,61.875
2019-01-25T09:48:16.653Z,61.875
2019-01-25T09:51:44.518Z,61.875
2019-01-25T09:55:12.393Z,56.25
2019-01-25T09:58:40.255Z,61.875
2019-01-25T10:02:09.126Z,56.25
2019-01-25T10:05:36.996Z,56.25
2019-01-25T10:09:04.851Z,56.25
2019-01-25T10:12:36.137Z,56.25
2019-01-25T10:16:05.549Z,56.25
2019-01-25T10:19:33.401Z,56.25
2019-01-25T10:23:02.266Z,56.25
2019-01-25T10:26:30.142Z,61.875
2019-01-25T10:30:00.027Z,56.25
2019-01-25T10:33:27.883Z,50.625
2019-01-25T10:36:55.751Z,50.625
2019-01-25T10:40:23.652Z,50.625
2019-01-25T10:43:52.500Z,50.625
2019-01-25T10:47:20.375Z,45
2019-01-25T10:50:48.242Z,45
2019-01-25T10:54:16.104Z,45
2019-01-25T10:57:43.980Z,45
2019-01-25T11:01:11.846Z,39.375
2019-01-25T11:04:39.691Z,39.375
2019-01-25T11:08:07.566Z,45
2019-01-25T11:11:35.436Z,45
2019-01-25T11:15:04.290Z,50.625
2019-01-25T11:18:32.161Z,45
2019-01-25T11:22:00.041Z,50.625
2019-01-25T11:25:27.908Z,50.625
2019-01-25T11:28:55.775Z,50.625
2019-01-25T11:32:23.634Z,56.25
2019-01-25T11:35:51.513Z,56.25
2019-01-25T11:39:19.370Z,56.25
2019-01-25T11:42:47.236Z,56.25
2019-01-25T11:46:15.106Z,56.25
2019-01-25T11:49:42.966Z,50.625
2019-01-25T11:53:10.832Z,45
2019-01-25T11:56:38.705Z,45
2019-01-25T12:00:06.556Z,33.75
2019-01-25T12:03:34.426Z,33.75
2019-01-25T12:07:02.293Z,33.75
2019-01-25T12:10:30.153Z,33.75
2019-01-25T12:13:58.022Z,33.75
2019-01-25T12:17:25.895Z,33.75
2019-01-25T12:20:54.742Z,33.75
2019-01-25T12:24:22.605Z,33.75
2019-01-25T12:27:51.471Z,33.75
2019-01-25T12:31:19.330Z,33.75
2019-01-25T12:34:47.207Z,39.375
2019-01-25T12:38:15.081Z,39.375
2019-01-25T12:41:42.944Z,39.375
2019-01-25T12:45:11.076Z,33.75
2019-01-25T12:48:38.949Z,39.375
2019-01-25T12:52:08.809Z,33.75
2019-01-25T12:55:36.671Z,33.75
2019-01-25T12:59:04.531Z,33.75
2019-01-25T13:02:33.395Z,33.75
2019-01-25T13:06:01.267Z,33.75
2019-01-25T13:09:29.148Z,28.125
2019-01-25T13:12:57.683Z,28.125
2019-01-25T13:16:25.537Z,28.125
2019-01-25T13:19:53.405Z,28.125
2019-01-25T13:23:21.282Z,28.125
2019-01-25T13:26:49.160Z,22.5
2019-01-25T13:30:17.012Z,16.875
2019-01-25T13:33:45.876Z,16.875
2019-01-25T13:37:13.728Z,16.875
2019-01-25T13:40:41.641Z,16.875
2019-01-25T13:44:13.227Z,22.5
2019-01-25T13:47:41.088Z,16.875
2019-01-25T13:51:08.960Z,16.875
2019-01-25T13:54:36.831Z,16.875
2019-01-25T13:58:04.714Z,16.875
2019-01-25T14:01:35.559Z,16.875
2019-01-25T14:05:03.559Z,16.875
2019-01-25T14:08:31.474Z,16.875
2019-01-25T14:11:59.351Z,16.875
2019-01-25T14:15:27.245Z,11.25
2019-01-25T14:18:56.255Z,11.25
2019-01-25T14:22:24.165Z,11.25
2019-01-25T14:25:52.034Z,5.625
2019-01-25T14:29:19.997Z,5.625
2019-01-25T14:32:47.929Z,5.625
2019-01-25T14:36:15.798Z,5.625
2019-01-25T14:39:43.672Z,5.625
2019-01-25T14:43:12.542Z,5.625
2019-01-25T14:46:40.466Z,5.625
2019-01-25T14:50:08.488Z,5.625
2019-01-25T14:53:36.345Z,5.625
2019-01-25T14:57:04.203Z,5.625
2019-01-25T15:00:32.071Z,5.625
2019-01-25T15:03:59.937Z,5.625
2019-01-25T15:07:27.792Z,0
2019-01-25T15:10:55.673Z,0
2019-01-25T15:14:23.574Z,0
2019-01-25T15:17:51.448Z,0
2019-01-25T15:21:19.307Z,0
2019-01-25T15:24:47.191Z,0
2019-01-25T15:28:15.058Z,0
2019-01-25T15:31:42.960Z,0
2019-01-25T15:35:10.849Z,0
2019-01-25T15:38:38.760Z,0
2019-01-25T15:42:07.671Z,0
2019-01-25T15:45:35.584Z,0
2019-01-25T15:49:04.471Z,0
2019-01-25T15:52:32.361Z,0
2019-01-25T15:56:00.242Z,0
2019-01-25T15:59:28.176Z,0
2019-01-25T16:02:56.090Z,0
2019-01-25T16:06:24.002Z,0
2019-01-25T16:09:51.897Z,0
2019-01-25T16:13:19.755Z,0
2019-01-25T16:16:47.630Z,0
2019-01-25T16:20:15.514Z,0
2019-01-25T16:23:43.380Z,0
2019-01-25T16:27:11.271Z,0
2019-01-25T16:30:39.140Z,0
2019-01-25T16:34:06.999Z,0
2019-01-25T16:37:34.876Z,0
2019-01-25T16:41:02.746Z,0
2019-01-25T16:44:31.598Z,0
2019-01-25T16:47:59.476Z,0
2019-01-25T16:51:28.341Z,0
2019-01-25T16:54:56.633Z,0
2019-01-25T16:58:24.487Z,0
2019-01-25T17:01:52.424Z,0
2019-01-25T17:05:20.434Z,0
2019-01-25T17:08:48.369Z,0
2019-01-25T17:12:16.273Z,0
2019-01-25T17:15:44.169Z,0
2019-01-25T17:19:12.018Z,0
2019-01-25T17:22:39.911Z,0
2019-01-25T17:26:07.782Z,0
2019-01-25T17:29:36.623Z,0
2019-01-25T17:33:04.496Z,0
2019-01-25T17:36:32.374Z,0
2019-01-25T17:40:00.324Z,0
2019-01-25T17:43:28.097Z,0
2019-01-25T17:46:55.963Z,0
2019-01-25T17:50:23.823Z,0
2019-01-25T17:53:52.451Z,0
2019-01-25T17:57:19.573Z,0
2019-01-25T18:00:47.433Z,0
2019-01-25T18:04:15.301Z,0
2019-01-25T18:07:44.255Z,0
2019-01-25T18:11:12.011Z,0
2019-01-25T18:14:39.884Z,0
2019-01-25T18:18:08.748Z,0
2019-01-25T18:21:38.592Z,0
2019-01-25T18:25:06.464Z,0
2019-01-25T18:28:34.333Z,0
2019-01-25T18:32:02.194Z,0
2019-01-25T18:35:30.065Z,0
2019-01-25T18:38:57.940Z,0
2019-01-25T18:42:25.790Z,0
2019-01-25T18:45:54.653Z,0
2019-01-25T18:49:22.543Z,0
2019-01-25T18:52:50.408Z,0
2019-01-25T18:56:18.276Z,0
2019-01-25T18:59:46.154Z,0
2019-01-25T19:03:14.028Z,0
2019-01-25T19:06:41.880Z,0
2019-01-25T19:10:09.751Z,0
2019-01-25T19:13:37.678Z,0
2019-01-25T19:17:06.519Z,0
2019-01-25T19:20:35.252Z,0
2019-01-25T19:24:03.225Z,0
2019-01-25T19:27:31.134Z,0
2019-01-25T19:30:58.996Z,0
2019-01-25T19:34:26.872Z,0
2019-01-25T19:37:54.730Z,0
2019-01-25T19:41:22.598Z,0
2019-01-25T19:44:50.455Z,0
2019-01-25T19:48:18.338Z,0
2019-01-25T19:51:46.219Z,0
2019-01-25T19:55:14.097Z,0
2019-01-25T19:58:41.949Z,0
2019-01-25T20:02:09.822Z,0
2019-01-25T20:05:37.705Z,0
2019-01-25T20:09:06.545Z,0
2019-01-25T20:12:34.421Z,0
2019-01-25T20:16:02.294Z,0
2019-01-25T20:19:30.149Z,0
2019-01-25T20:22:58.022Z,0
2019-01-25T20:26:25.891Z,0
2019-01-25T20:29:53.743Z,0
2019-01-25T20:33:21.617Z,0
2019-01-25T20:36:49.488Z,0
2019-01-25T20:40:17.347Z,0
2019-01-25T20:43:45.217Z,0
2019-01-25T20:47:13.180Z,0
2019-01-25T20:50:42.029Z,0
2019-01-25T20:54:09.901Z,0
2019-01-25T20:57:37.767Z,0
2019-01-25T21:01:05.624Z,0
2019-01-25T21:04:33.498Z,0
2019-01-25T21:08:01.377Z,0
2019-01-25T21:11:30.217Z,0
2019-01-25T21:14:58.111Z,0
2019-01-25T21:18:25.983Z,0
2019-01-25T21:21:53.833Z,0
2019-01-25T21:25:21.706Z,0
2019-01-25T21:28:49.572Z,0
2019-01-25T21:32:17.422Z,0
2019-01-25T21:35:45.297Z,0
2019-01-25T21:39:13.166Z,0
2019-01-25T21:42:42.012Z,0
2019-01-25T21:46:09.885Z,0
2019-01-25T21:49:37.759Z,0
2019-01-25T21:53:05.613Z,0
2019-01-25T21:56:33.507Z,0
2019-01-25T22:00:01.406Z,0
2019-01-25T22:03:29.273Z,0
2019-01-25T22:06:58.111Z,0
2019-01-25T22:10:25.993Z,0
2019-01-25T22:13:55.848Z,0
2019-01-25T22:17:23.701Z,0
2019-01-25T22:20:51.581Z,0
2019-01-25T22:24:20.433Z,0
2019-01-25T22:27:48.286Z,0
2019-01-25T22:31:16.155Z,0
2019-01-25T22:34:44.933Z,0
2019-01-25T22:38:12.879Z,0
2019-01-25T22:41:40.748Z,0
2019-01-25T22:45:08.616Z,0
2019-01-25T22:48:37.465Z,0
2019-01-25T22:52:06.331Z,0
2019-01-25T22:55:34.202Z,0
2019-01-25T22:59:02.108Z,0
